sensor_id;sensor_type;location;lat;lon;timestamp;P1;durP1;ratioP1;P2;durP2;ratioP2
15383;SDS011;7790;53.022;12.968;2023-02-19T00:00:59;0.80;;;0.70;;
15383;SDS011;7790;53.022;12.968;2023-02-19T00:05:00;0.87;;;0.50;;
15383;SDS011;7790;53.022;12.968;2023-02-19T00:09:01;1.17;;;0.60;;
15383;SDS011;7790;53.022;12.968;2023-02-19T00:13:03;0.70;;;0.70;;
15383;SDS011;7790;53.022;12.968;2023-02-19T00:17:04;0.77;;;0.77;;
15383;SDS011;7790;53.022;12.968;2023-02-19T00:21:04;1.10;;;0.70;;
15383;SDS011;7790;53.022;12.968;2023-02-19T00:25:05;0.70;;;0.50;;
15383;SDS011;7790;53.022;12.968;2023-02-19T00:29:06;0.97;;;0.50;;
15383;SDS011;7790;53.022;12.968;2023-02-19T00:33:08;0.70;;;0.60;;
15383;SDS011;7790;53.022;12.968;2023-02-19T00:37:09;1.10;;;0.70;;
15383;SDS011;7790;53.022;12.968;2023-02-19T00:41:11;0.80;;;0.50;;
15383;SDS011;7790;53.022;12.968;2023-02-19T00:45:19;0.30;;;0.30;;
15383;SDS011;7790;53.022;12.968;2023-02-19T00:49:21;0.80;;;0.50;;
15383;SDS011;7790;53.022;12.968;2023-02-19T00:53:22;1.13;;;0.60;;
15383;SDS011;7790;53.022;12.968;2023-02-19T00:57:23;0.60;;;0.47;;
15383;SDS011;7790;53.022;12.968;2023-02-19T01:01:24;0.70;;;0.60;;
15383;SDS011;7790;53.022;12.968;2023-02-19T01:05:25;1.07;;;0.60;;
15383;SDS011;7790;53.022;12.968;2023-02-19T01:09:26;0.90;;;0.57;;
15383;SDS011;7790;53.022;12.968;2023-02-19T01:13:27;0.93;;;0.73;;
15383;SDS011;7790;53.022;12.968;2023-02-19T01:17:28;0.77;;;0.70;;
15383;SDS011;7790;53.022;12.968;2023-02-19T01:21:29;0.63;;;0.40;;
15383;SDS011;7790;53.022;12.968;2023-02-19T01:25:30;0.47;;;0.47;;
15383;SDS011;7790;53.022;12.968;2023-02-19T01:29:32;0.63;;;0.63;;
15383;SDS011;7790;53.022;12.968;2023-02-19T01:33:33;0.57;;;0.40;;
15383;SDS011;7790;53.022;12.968;2023-02-19T01:37:34;0.97;;;0.70;;
15383;SDS011;7790;53.022;12.968;2023-02-19T01:41:36;1.00;;;0.70;;
15383;SDS011;7790;53.022;12.968;2023-02-19T01:45:41;0.63;;;0.47;;
15383;SDS011;7790;53.022;12.968;2023-02-19T01:49:45;0.40;;;0.40;;
15383;SDS011;7790;53.022;12.968;2023-02-19T01:53:52;0.90;;;0.50;;
15383;SDS011;7790;53.022;12.968;2023-02-19T01:57:56;0.93;;;0.60;;
15383;SDS011;7790;53.022;12.968;2023-02-19T02:01:57;0.47;;;0.47;;
15383;SDS011;7790;53.022;12.968;2023-02-19T02:06:01;0.53;;;0.50;;
15383;SDS011;7790;53.022;12.968;2023-02-19T02:10:06;0.40;;;0.40;;
15383;SDS011;7790;53.022;12.968;2023-02-19T02:14:26;0.63;;;0.50;;
15383;SDS011;7790;53.022;12.968;2023-02-19T02:27:25;0.43;;;0.43;;
15383;SDS011;7790;53.022;12.968;2023-02-19T02:31:38;0.60;;;0.60;;
15383;SDS011;7790;53.022;12.968;2023-02-19T02:35:46;0.53;;;0.53;;
15383;SDS011;7790;53.022;12.968;2023-02-19T02:40:14;0.63;;;0.63;;
15383;SDS011;7790;53.022;12.968;2023-02-19T02:44:17;1.93;;;0.60;;
15383;SDS011;7790;53.022;12.968;2023-02-19T02:52:43;0.60;;;0.50;;
15383;SDS011;7790;53.022;12.968;2023-02-19T02:57:07;0.60;;;0.60;;
15383;SDS011;7790;53.022;12.968;2023-02-19T03:01:19;0.50;;;0.50;;
15383;SDS011;7790;53.022;12.968;2023-02-19T03:05:43;0.60;;;0.60;;
15383;SDS011;7790;53.022;12.968;2023-02-19T03:09:54;1.50;;;0.50;;
15383;SDS011;7790;53.022;12.968;2023-02-19T03:14:03;2.20;;;0.60;;
15383;SDS011;7790;53.022;12.968;2023-02-19T03:18:28;0.50;;;0.43;;
15383;SDS011;7790;53.022;12.968;2023-02-19T03:22:51;0.70;;;0.70;;
15383;SDS011;7790;53.022;12.968;2023-02-19T03:26:55;1.00;;;0.50;;
15383;SDS011;7790;53.022;12.968;2023-02-19T03:31:00;1.00;;;0.60;;
15383;SDS011;7790;53.022;12.968;2023-02-19T03:35:18;0.40;;;0.40;;
15383;SDS011;7790;53.022;12.968;2023-02-19T03:39:22;0.40;;;0.40;;
15383;SDS011;7790;53.022;12.968;2023-02-19T03:43:26;0.60;;;0.60;;
15383;SDS011;7790;53.022;12.968;2023-02-19T03:47:57;0.27;;;0.27;;
15383;SDS011;7790;53.022;12.968;2023-02-19T04:00:48;0.50;;;0.40;;
15383;SDS011;7790;53.022;12.968;2023-02-19T04:04:54;0.83;;;0.50;;
15383;SDS011;7790;53.022;12.968;2023-02-19T04:09:28;1.20;;;0.50;;
15383;SDS011;7790;53.022;12.968;2023-02-19T04:13:44;0.40;;;0.40;;
15383;SDS011;7790;53.022;12.968;2023-02-19T04:17:52;0.50;;;0.50;;
15383;SDS011;7790;53.022;12.968;2023-02-19T04:21:57;0.80;;;0.40;;
15383;SDS011;7790;53.022;12.968;2023-02-19T04:25:59;0.60;;;0.60;;
15383;SDS011;7790;53.022;12.968;2023-02-19T04:30:02;0.50;;;0.50;;
15383;SDS011;7790;53.022;12.968;2023-02-19T04:34:04;1.37;;;0.40;;
15383;SDS011;7790;53.022;12.968;2023-02-19T04:38:05;0.77;;;0.50;;
15383;SDS011;7790;53.022;12.968;2023-02-19T04:42:07;1.23;;;0.70;;
15383;SDS011;7790;53.022;12.968;2023-02-19T04:46:09;0.87;;;0.40;;
15383;SDS011;7790;53.022;12.968;2023-02-19T04:50:10;0.87;;;0.50;;
15383;SDS011;7790;53.022;12.968;2023-02-19T04:54:10;0.57;;;0.43;;
15383;SDS011;7790;53.022;12.968;2023-02-19T04:58:11;0.33;;;0.33;;
15383;SDS011;7790;53.022;12.968;2023-02-19T05:02:13;0.60;;;0.33;;
15383;SDS011;7790;53.022;12.968;2023-02-19T05:06:13;0.60;;;0.50;;
15383;SDS011;7790;53.022;12.968;2023-02-19T05:10:14;0.50;;;0.50;;
15383;SDS011;7790;53.022;12.968;2023-02-19T05:14:15;0.77;;;0.70;;
15383;SDS011;7790;53.022;12.968;2023-02-19T05:18:16;0.80;;;0.77;;
15383;SDS011;7790;53.022;12.968;2023-02-19T05:22:17;0.73;;;0.47;;
15383;SDS011;7790;53.022;12.968;2023-02-19T05:26:19;0.53;;;0.53;;
15383;SDS011;7790;53.022;12.968;2023-02-19T05:30:21;0.57;;;0.50;;
15383;SDS011;7790;53.022;12.968;2023-02-19T05:34:22;0.87;;;0.57;;
15383;SDS011;7790;53.022;12.968;2023-02-19T05:38:23;1.50;;;0.70;;
15383;SDS011;7790;53.022;12.968;2023-02-19T05:42:24;0.53;;;0.53;;
15383;SDS011;7790;53.022;12.968;2023-02-19T05:46:26;1.10;;;0.70;;
15383;SDS011;7790;53.022;12.968;2023-02-19T05:50:29;0.47;;;0.47;;
15383;SDS011;7790;53.022;12.968;2023-02-19T05:54:44;0.40;;;0.40;;
15383;SDS011;7790;53.022;12.968;2023-02-19T05:58:45;0.70;;;0.70;;
15383;SDS011;7790;53.022;12.968;2023-02-19T06:02:46;0.77;;;0.57;;
15383;SDS011;7790;53.022;12.968;2023-02-19T06:06:47;0.60;;;0.60;;
15383;SDS011;7790;53.022;12.968;2023-02-19T06:10:48;0.40;;;0.40;;
15383;SDS011;7790;53.022;12.968;2023-02-19T06:14:49;2.53;;;0.70;;
15383;SDS011;7790;53.022;12.968;2023-02-19T06:18:50;1.80;;;0.50;;
15383;SDS011;7790;53.022;12.968;2023-02-19T06:22:51;2.73;;;0.60;;
15383;SDS011;7790;53.022;12.968;2023-02-19T06:26:52;0.83;;;0.50;;
15383;SDS011;7790;53.022;12.968;2023-02-19T06:30:52;0.73;;;0.50;;
15383;SDS011;7790;53.022;12.968;2023-02-19T06:34:53;1.17;;;0.57;;
15383;SDS011;7790;53.022;12.968;2023-02-19T06:38:54;0.90;;;0.43;;
15383;SDS011;7790;53.022;12.968;2023-02-19T06:42:59;0.67;;;0.50;;
15383;SDS011;7790;53.022;12.968;2023-02-19T06:47:00;0.63;;;0.60;;
15383;SDS011;7790;53.022;12.968;2023-02-19T06:51:01;0.70;;;0.63;;
15383;SDS011;7790;53.022;12.968;2023-02-19T06:55:02;1.27;;;0.60;;
15383;SDS011;7790;53.022;12.968;2023-02-19T06:59:03;2.80;;;0.60;;
15383;SDS011;7790;53.022;12.968;2023-02-19T07:03:09;1.53;;;0.40;;
15383;SDS011;7790;53.022;12.968;2023-02-19T07:07:10;1.10;;;0.50;;
15383;SDS011;7790;53.022;12.968;2023-02-19T07:11:11;2.67;;;0.80;;
15383;SDS011;7790;53.022;12.968;2023-02-19T07:15:12;1.57;;;0.63;;
15383;SDS011;7790;53.022;12.968;2023-02-19T07:19:13;4.17;;;0.80;;
15383;SDS011;7790;53.022;12.968;2023-02-19T07:23:14;4.97;;;0.90;;
15383;SDS011;7790;53.022;12.968;2023-02-19T07:27:16;1.23;;;0.50;;
15383;SDS011;7790;53.022;12.968;2023-02-19T07:31:17;2.67;;;0.80;;
15383;SDS011;7790;53.022;12.968;2023-02-19T07:35:20;1.60;;;0.57;;
15383;SDS011;7790;53.022;12.968;2023-02-19T07:39:21;3.10;;;0.83;;
15383;SDS011;7790;53.022;12.968;2023-02-19T07:43:22;0.73;;;0.67;;
15383;SDS011;7790;53.022;12.968;2023-02-19T07:47:26;0.93;;;0.70;;
15383;SDS011;7790;53.022;12.968;2023-02-19T07:51:29;1.80;;;0.50;;
15383;SDS011;7790;53.022;12.968;2023-02-19T07:55:33;1.90;;;0.70;;
15383;SDS011;7790;53.022;12.968;2023-02-19T07:59:34;1.27;;;0.63;;
15383;SDS011;7790;53.022;12.968;2023-02-19T08:03:35;4.47;;;0.90;;
15383;SDS011;7790;53.022;12.968;2023-02-19T08:07:36;4.07;;;0.80;;
15383;SDS011;7790;53.022;12.968;2023-02-19T08:11:37;3.80;;;0.90;;
15383;SDS011;7790;53.022;12.968;2023-02-19T08:20:01;3.53;;;0.80;;
15383;SDS011;7790;53.022;12.968;2023-02-19T08:24:01;4.93;;;0.80;;
15383;SDS011;7790;53.022;12.968;2023-02-19T08:28:03;1.00;;;0.77;;
15383;SDS011;7790;53.022;12.968;2023-02-19T08:32:05;1.63;;;0.70;;
15383;SDS011;7790;53.022;12.968;2023-02-19T08:36:06;3.13;;;1.00;;
15383;SDS011;7790;53.022;12.968;2023-02-19T08:40:08;1.20;;;1.10;;
15383;SDS011;7790;53.022;12.968;2023-02-19T08:44:10;4.03;;;1.00;;
15383;SDS011;7790;53.022;12.968;2023-02-19T08:48:11;3.00;;;0.73;;
15383;SDS011;7790;53.022;12.968;2023-02-19T08:52:12;0.83;;;0.53;;
15383;SDS011;7790;53.022;12.968;2023-02-19T08:56:14;0.90;;;0.67;;
15383;SDS011;7790;53.022;12.968;2023-02-19T09:00:15;2.27;;;1.00;;
15383;SDS011;7790;53.022;12.968;2023-02-19T09:04:16;2.77;;;0.80;;
15383;SDS011;7790;53.022;12.968;2023-02-19T09:08:17;1.13;;;0.67;;
15383;SDS011;7790;53.022;12.968;2023-02-19T09:12:18;1.70;;;0.77;;
15383;SDS011;7790;53.022;12.968;2023-02-19T09:16:19;2.33;;;0.70;;
15383;SDS011;7790;53.022;12.968;2023-02-19T09:20:20;3.07;;;0.67;;
15383;SDS011;7790;53.022;12.968;2023-02-19T09:24:21;1.77;;;0.73;;
15383;SDS011;7790;53.022;12.968;2023-02-19T09:28:23;1.53;;;0.50;;
15383;SDS011;7790;53.022;12.968;2023-02-19T09:32:24;0.80;;;0.60;;
15383;SDS011;7790;53.022;12.968;2023-02-19T09:36:24;1.57;;;0.53;;
15383;SDS011;7790;53.022;12.968;2023-02-19T09:40:25;2.87;;;1.93;;
15383;SDS011;7790;53.022;12.968;2023-02-19T09:44:31;3.03;;;1.70;;
15383;SDS011;7790;53.022;12.968;2023-02-19T09:48:34;2.73;;;1.73;;
15383;SDS011;7790;53.022;12.968;2023-02-19T09:52:37;3.53;;;2.10;;
15383;SDS011;7790;53.022;12.968;2023-02-19T09:56:41;3.33;;;1.93;;
15383;SDS011;7790;53.022;12.968;2023-02-19T10:00:43;10.20;;;1.80;;
15383;SDS011;7790;53.022;12.968;2023-02-19T10:04:49;4.13;;;1.93;;
15383;SDS011;7790;53.022;12.968;2023-02-19T10:08:52;4.60;;;1.77;;
15383;SDS011;7790;53.022;12.968;2023-02-19T10:12:58;8.37;;;2.00;;
15383;SDS011;7790;53.022;12.968;2023-02-19T10:17:12;7.33;;;2.00;;
15383;SDS011;7790;53.022;12.968;2023-02-19T10:21:24;3.90;;;1.67;;
15383;SDS011;7790;53.022;12.968;2023-02-19T10:25:27;4.63;;;1.53;;
15383;SDS011;7790;53.022;12.968;2023-02-19T10:29:29;5.57;;;1.93;;
15383;SDS011;7790;53.022;12.968;2023-02-19T10:33:29;4.87;;;1.70;;
15383;SDS011;7790;53.022;12.968;2023-02-19T10:37:31;5.27;;;1.67;;
15383;SDS011;7790;53.022;12.968;2023-02-19T10:41:32;8.00;;;1.77;;
15383;SDS011;7790;53.022;12.968;2023-02-19T10:45:40;5.37;;;1.50;;
15383;SDS011;7790;53.022;12.968;2023-02-19T10:49:49;4.07;;;1.60;;
15383;SDS011;7790;53.022;12.968;2023-02-19T10:54:01;8.23;;;1.60;;
15383;SDS011;7790;53.022;12.968;2023-02-19T10:58:21;2.87;;;1.33;;
15383;SDS011;7790;53.022;12.968;2023-02-19T11:02:28;2.43;;;1.20;;
15383;SDS011;7790;53.022;12.968;2023-02-19T11:06:30;5.20;;;1.83;;
15383;SDS011;7790;53.022;12.968;2023-02-19T11:10:33;3.07;;;1.40;;
15383;SDS011;7790;53.022;12.968;2023-02-19T11:14:42;4.40;;;1.37;;
15383;SDS011;7790;53.022;12.968;2023-02-19T11:18:44;3.43;;;1.57;;
15383;SDS011;7790;53.022;12.968;2023-02-19T11:23:00;13.10;;;2.30;;
15383;SDS011;7790;53.022;12.968;2023-02-19T11:27:15;4.80;;;1.60;;
15383;SDS011;7790;53.022;12.968;2023-02-19T11:31:26;5.40;;;1.70;;
15383;SDS011;7790;53.022;12.968;2023-02-19T11:35:31;4.73;;;1.70;;
15383;SDS011;7790;53.022;12.968;2023-02-19T11:39:32;4.33;;;1.60;;
15383;SDS011;7790;53.022;12.968;2023-02-19T11:43:46;3.57;;;1.50;;
15383;SDS011;7790;53.022;12.968;2023-02-19T11:56:23;4.10;;;1.33;;
15383;SDS011;7790;53.022;12.968;2023-02-19T12:00:34;4.50;;;1.60;;
15383;SDS011;7790;53.022;12.968;2023-02-19T12:30:48;1.67;;;0.80;;
15383;SDS011;7790;53.022;12.968;2023-02-19T12:35:09;4.37;;;1.27;;
15383;SDS011;7790;53.022;12.968;2023-02-19T12:43:39;5.50;;;1.23;;
15383;SDS011;7790;53.022;12.968;2023-02-19T12:47:55;3.93;;;1.30;;
15383;SDS011;7790;53.022;12.968;2023-02-19T12:52:20;4.73;;;1.83;;
15383;SDS011;7790;53.022;12.968;2023-02-19T13:00:34;22.97;;;12.07;;
15383;SDS011;7790;53.022;12.968;2023-02-19T13:04:48;24.60;;;14.53;;
15383;SDS011;7790;53.022;12.968;2023-02-19T13:09:10;22.43;;;13.70;;
15383;SDS011;7790;53.022;12.968;2023-02-19T13:13:25;21.67;;;14.07;;
15383;SDS011;7790;53.022;12.968;2023-02-19T13:17:33;22.53;;;14.13;;
15383;SDS011;7790;53.022;12.968;2023-02-19T13:21:35;26.50;;;16.73;;
15383;SDS011;7790;53.022;12.968;2023-02-19T13:26:17;29.03;;;18.27;;
15383;SDS011;7790;53.022;12.968;2023-02-19T13:30:46;33.97;;;19.80;;
15383;SDS011;7790;53.022;12.968;2023-02-19T13:39:18;38.70;;;23.33;;
15383;SDS011;7790;53.022;12.968;2023-02-19T13:43:24;34.30;;;21.97;;
15383;SDS011;7790;53.022;12.968;2023-02-19T13:51:57;32.73;;;21.40;;
15383;SDS011;7790;53.022;12.968;2023-02-19T13:56:02;32.93;;;22.17;;
15383;SDS011;7790;53.022;12.968;2023-02-19T14:04:49;33.70;;;21.77;;
15383;SDS011;7790;53.022;12.968;2023-02-19T14:08:52;30.20;;;20.10;;
15383;SDS011;7790;53.022;12.968;2023-02-19T14:12:57;31.80;;;20.27;;
15383;SDS011;7790;53.022;12.968;2023-02-19T14:16:59;27.53;;;19.23;;
15383;SDS011;7790;53.022;12.968;2023-02-19T14:21:13;28.77;;;19.23;;
15383;SDS011;7790;53.022;12.968;2023-02-19T14:25:36;33.10;;;18.70;;
15383;SDS011;7790;53.022;12.968;2023-02-19T14:29:41;26.73;;;17.87;;
15383;SDS011;7790;53.022;12.968;2023-02-19T14:33:45;25.77;;;17.63;;
15383;SDS011;7790;53.022;12.968;2023-02-19T14:38:34;24.47;;;16.47;;
15383;SDS011;7790;53.022;12.968;2023-02-19T14:42:39;21.37;;;15.70;;
15383;SDS011;7790;53.022;12.968;2023-02-19T14:46:43;22.17;;;15.70;;
15383;SDS011;7790;53.022;12.968;2023-02-19T14:50:51;20.23;;;15.37;;
15383;SDS011;7790;53.022;12.968;2023-02-19T14:54:56;22.80;;;14.60;;
15383;SDS011;7790;53.022;12.968;2023-02-19T15:03:29;23.07;;;14.50;;
15383;SDS011;7790;53.022;12.968;2023-02-19T15:07:34;20.90;;;14.30;;
15383;SDS011;7790;53.022;12.968;2023-02-19T15:11:35;17.30;;;12.50;;
15383;SDS011;7790;53.022;12.968;2023-02-19T15:15:37;18.87;;;11.37;;
15383;SDS011;7790;53.022;12.968;2023-02-19T15:19:42;22.23;;;12.20;;
15383;SDS011;7790;53.022;12.968;2023-02-19T15:23:43;18.90;;;12.97;;
15383;SDS011;7790;53.022;12.968;2023-02-19T15:27:45;19.37;;;12.10;;
15383;SDS011;7790;53.022;12.968;2023-02-19T15:31:51;18.27;;;11.67;;
15383;SDS011;7790;53.022;12.968;2023-02-19T15:35:56;13.93;;;10.73;;
15383;SDS011;7790;53.022;12.968;2023-02-19T15:40:00;16.33;;;9.97;;
15383;SDS011;7790;53.022;12.968;2023-02-19T15:44:15;18.67;;;10.50;;
15383;SDS011;7790;53.022;12.968;2023-02-19T15:48:29;17.97;;;9.93;;
15383;SDS011;7790;53.022;12.968;2023-02-19T15:57:00;16.73;;;9.40;;
15383;SDS011;7790;53.022;12.968;2023-02-19T16:01:11;14.17;;;9.00;;
15383;SDS011;7790;53.022;12.968;2023-02-19T16:05:26;12.07;;;9.03;;
15383;SDS011;7790;53.022;12.968;2023-02-19T16:09:32;14.67;;;8.67;;
15383;SDS011;7790;53.022;12.968;2023-02-19T16:13:36;11.13;;;8.13;;
15383;SDS011;7790;53.022;12.968;2023-02-19T16:17:37;10.10;;;7.87;;
15383;SDS011;7790;53.022;12.968;2023-02-19T16:21:42;12.40;;;8.60;;
15383;SDS011;7790;53.022;12.968;2023-02-19T16:25:43;12.93;;;7.53;;
15383;SDS011;7790;53.022;12.968;2023-02-19T16:29:48;9.00;;;7.17;;
15383;SDS011;7790;53.022;12.968;2023-02-19T16:33:50;8.43;;;5.93;;
15383;SDS011;7790;53.022;12.968;2023-02-19T16:37:58;9.70;;;5.00;;
15383;SDS011;7790;53.022;12.968;2023-02-19T16:46:01;9.13;;;5.27;;
15383;SDS011;7790;53.022;12.968;2023-02-19T16:50:03;7.27;;;4.27;;
15383;SDS011;7790;53.022;12.968;2023-02-19T16:54:11;10.27;;;4.60;;
15383;SDS011;7790;53.022;12.968;2023-02-19T16:58:12;5.77;;;4.13;;
15383;SDS011;7790;53.022;12.968;2023-02-19T17:02:17;7.00;;;4.50;;
15383;SDS011;7790;53.022;12.968;2023-02-19T17:06:20;5.40;;;4.10;;
15383;SDS011;7790;53.022;12.968;2023-02-19T17:10:22;4.67;;;3.97;;
15383;SDS011;7790;53.022;12.968;2023-02-19T17:14:24;5.77;;;4.03;;
15383;SDS011;7790;53.022;12.968;2023-02-19T17:18:24;4.90;;;3.60;;
15383;SDS011;7790;53.022;12.968;2023-02-19T17:22:25;6.83;;;3.70;;
15383;SDS011;7790;53.022;12.968;2023-02-19T17:26:27;4.87;;;3.67;;
15383;SDS011;7790;53.022;12.968;2023-02-19T17:30:30;4.53;;;2.87;;
15383;SDS011;7790;53.022;12.968;2023-02-19T17:34:32;5.57;;;3.13;;
15383;SDS011;7790;53.022;12.968;2023-02-19T17:38:34;4.87;;;2.90;;
15383;SDS011;7790;53.022;12.968;2023-02-19T17:42:35;6.30;;;3.30;;
15383;SDS011;7790;53.022;12.968;2023-02-19T17:46:37;4.30;;;3.13;;
15383;SDS011;7790;53.022;12.968;2023-02-19T17:50:38;2.70;;;2.27;;
15383;SDS011;7790;53.022;12.968;2023-02-19T17:54:38;5.93;;;3.17;;
15383;SDS011;7790;53.022;12.968;2023-02-19T17:58:41;5.97;;;2.67;;
15383;SDS011;7790;53.022;12.968;2023-02-19T18:02:42;7.20;;;2.50;;
15383;SDS011;7790;53.022;12.968;2023-02-19T18:06:43;3.33;;;2.73;;
15383;SDS011;7790;53.022;12.968;2023-02-19T18:10:44;4.97;;;2.70;;
15383;SDS011;7790;53.022;12.968;2023-02-19T18:14:44;4.87;;;2.10;;
15383;SDS011;7790;53.022;12.968;2023-02-19T18:18:45;2.80;;;2.10;;
15383;SDS011;7790;53.022;12.968;2023-02-19T18:22:46;7.00;;;2.90;;
15383;SDS011;7790;53.022;12.968;2023-02-19T18:26:47;5.07;;;2.50;;
15383;SDS011;7790;53.022;12.968;2023-02-19T18:30:48;6.03;;;2.73;;
15383;SDS011;7790;53.022;12.968;2023-02-19T18:34:49;7.70;;;3.77;;
15383;SDS011;7790;53.022;12.968;2023-02-19T18:38:55;7.80;;;3.07;;
15383;SDS011;7790;53.022;12.968;2023-02-19T18:42:56;6.57;;;3.53;;
15383;SDS011;7790;53.022;12.968;2023-02-19T18:46:57;4.37;;;3.23;;
15383;SDS011;7790;53.022;12.968;2023-02-19T18:50:58;5.93;;;3.10;;
15383;SDS011;7790;53.022;12.968;2023-02-19T18:54:59;4.60;;;3.13;;
15383;SDS011;7790;53.022;12.968;2023-02-19T18:59:00;5.27;;;3.23;;
15383;SDS011;7790;53.022;12.968;2023-02-19T19:03:03;3.97;;;2.47;;
15383;SDS011;7790;53.022;12.968;2023-02-19T19:07:04;3.53;;;2.20;;
15383;SDS011;7790;53.022;12.968;2023-02-19T19:11:08;2.50;;;2.30;;
15383;SDS011;7790;53.022;12.968;2023-02-19T19:15:09;3.67;;;2.00;;
15383;SDS011;7790;53.022;12.968;2023-02-19T19:19:10;3.63;;;2.10;;
15383;SDS011;7790;53.022;12.968;2023-02-19T19:23:11;4.43;;;2.40;;
15383;SDS011;7790;53.022;12.968;2023-02-19T19:27:12;3.43;;;1.90;;
15383;SDS011;7790;53.022;12.968;2023-02-19T19:31:13;3.73;;;2.07;;
15383;SDS011;7790;53.022;12.968;2023-02-19T19:35:18;2.60;;;1.60;;
15383;SDS011;7790;53.022;12.968;2023-02-19T19:39:20;2.47;;;1.50;;
15383;SDS011;7790;53.022;12.968;2023-02-19T19:43:24;1.37;;;1.23;;
15383;SDS011;7790;53.022;12.968;2023-02-19T19:47:26;2.73;;;1.63;;
15383;SDS011;7790;53.022;12.968;2023-02-19T19:51:31;2.23;;;1.37;;
15383;SDS011;7790;53.022;12.968;2023-02-19T19:55:32;1.60;;;1.47;;
15383;SDS011;7790;53.022;12.968;2023-02-19T19:59:33;5.30;;;1.50;;
15383;SDS011;7790;53.022;12.968;2023-02-19T20:03:36;1.60;;;1.50;;
15383;SDS011;7790;53.022;12.968;2023-02-19T20:07:37;2.30;;;1.60;;
15383;SDS011;7790;53.022;12.968;2023-02-19T20:15:46;1.67;;;1.20;;
15383;SDS011;7790;53.022;12.968;2023-02-19T20:19:47;2.63;;;1.37;;
15383;SDS011;7790;53.022;12.968;2023-02-19T20:23:47;2.10;;;1.10;;
15383;SDS011;7790;53.022;12.968;2023-02-19T20:27:49;1.50;;;1.33;;
15383;SDS011;7790;53.022;12.968;2023-02-19T20:31:51;1.50;;;1.20;;
15383;SDS011;7790;53.022;12.968;2023-02-19T20:35:52;1.90;;;1.23;;
15383;SDS011;7790;53.022;12.968;2023-02-19T20:39:53;1.70;;;1.20;;
15383;SDS011;7790;53.022;12.968;2023-02-19T20:43:53;2.87;;;1.40;;
15383;SDS011;7790;53.022;12.968;2023-02-19T20:47:54;1.57;;;1.10;;
15383;SDS011;7790;53.022;12.968;2023-02-19T20:51:56;1.73;;;0.90;;
15383;SDS011;7790;53.022;12.968;2023-02-19T20:55:59;1.87;;;1.50;;
15383;SDS011;7790;53.022;12.968;2023-02-19T21:00:00;4.17;;;1.60;;
15383;SDS011;7790;53.022;12.968;2023-02-19T21:04:00;6.60;;;2.00;;
15383;SDS011;7790;53.022;12.968;2023-02-19T21:08:01;3.43;;;1.60;;
15383;SDS011;7790;53.022;12.968;2023-02-19T21:12:03;6.17;;;1.60;;
15383;SDS011;7790;53.022;12.968;2023-02-19T21:16:04;2.27;;;1.40;;
15383;SDS011;7790;53.022;12.968;2023-02-19T21:20:05;2.17;;;1.17;;
15383;SDS011;7790;53.022;12.968;2023-02-19T21:24:07;2.17;;;1.20;;
15383;SDS011;7790;53.022;12.968;2023-02-19T21:28:09;3.00;;;1.33;;
15383;SDS011;7790;53.022;12.968;2023-02-19T21:32:11;11.33;;;1.77;;
15383;SDS011;7790;53.022;12.968;2023-02-19T21:36:12;7.37;;;1.57;;
15383;SDS011;7790;53.022;12.968;2023-02-19T21:40:13;2.83;;;1.20;;
15383;SDS011;7790;53.022;12.968;2023-02-19T21:44:14;7.07;;;1.40;;
15383;SDS011;7790;53.022;12.968;2023-02-19T21:48:15;3.80;;;1.37;;
15383;SDS011;7790;53.022;12.968;2023-02-19T21:52:16;2.70;;;1.30;;
15383;SDS011;7790;53.022;12.968;2023-02-19T21:56:20;3.33;;;1.40;;
15383;SDS011;7790;53.022;12.968;2023-02-19T22:00:22;4.97;;;1.30;;
15383;SDS011;7790;53.022;12.968;2023-02-19T22:04:23;1.53;;;1.10;;
15383;SDS011;7790;53.022;12.968;2023-02-19T22:08:24;1.37;;;1.10;;
15383;SDS011;7790;53.022;12.968;2023-02-19T22:12:25;1.80;;;1.20;;
15383;SDS011;7790;53.022;12.968;2023-02-19T22:16:26;2.43;;;1.03;;
15383;SDS011;7790;53.022;12.968;2023-02-19T22:20:27;2.90;;;1.17;;
15383;SDS011;7790;53.022;12.968;2023-02-19T22:24:28;1.53;;;0.93;;
15383;SDS011;7790;53.022;12.968;2023-02-19T22:28:29;1.30;;;0.93;;
15383;SDS011;7790;53.022;12.968;2023-02-19T22:32:30;1.70;;;0.97;;
15383;SDS011;7790;53.022;12.968;2023-02-19T22:36:31;1.90;;;1.00;;
15383;SDS011;7790;53.022;12.968;2023-02-19T22:40:33;1.00;;;0.90;;
15383;SDS011;7790;53.022;12.968;2023-02-19T22:44:34;1.43;;;1.03;;
15383;SDS011;7790;53.022;12.968;2023-02-19T22:48:35;1.50;;;0.93;;
15383;SDS011;7790;53.022;12.968;2023-02-19T22:52:35;1.63;;;1.00;;
15383;SDS011;7790;53.022;12.968;2023-02-19T22:56:36;2.77;;;0.97;;
15383;SDS011;7790;53.022;12.968;2023-02-19T23:00:37;1.30;;;0.90;;
15383;SDS011;7790;53.022;12.968;2023-02-19T23:04:38;2.00;;;1.13;;
15383;SDS011;7790;53.022;12.968;2023-02-19T23:08:39;1.30;;;1.13;;
15383;SDS011;7790;53.022;12.968;2023-02-19T23:12:41;1.80;;;1.20;;
15383;SDS011;7790;53.022;12.968;2023-02-19T23:16:42;1.20;;;0.90;;
15383;SDS011;7790;53.022;12.968;2023-02-19T23:20:43;1.00;;;0.90;;
15383;SDS011;7790;53.022;12.968;2023-02-19T23:24:44;3.27;;;1.20;;
15383;SDS011;7790;53.022;12.968;2023-02-19T23:28:45;1.97;;;1.20;;
15383;SDS011;7790;53.022;12.968;2023-02-19T23:32:45;0.73;;;0.73;;
15383;SDS011;7790;53.022;12.968;2023-02-19T23:36:47;1.87;;;1.17;;
15383;SDS011;7790;53.022;12.968;2023-02-19T23:40:49;1.57;;;0.83;;
15383;SDS011;7790;53.022;12.968;2023-02-19T23:44:50;1.10;;;1.00;;
15383;SDS011;7790;53.022;12.968;2023-02-19T23:48:50;1.47;;;0.87;;
15383;SDS011;7790;53.022;12.968;2023-02-19T23:52:51;0.93;;;0.80;;
15383;SDS011;7790;53.022;12.968;2023-02-19T23:56:52;0.70;;;0.70;;
